Terminal Aerodrome Forecast
Issued by NWS

Home | Current Version | Previous Version | Text Only | Print | Product List | Glossary On
Versions: 1 2 3 4 5 6 7 8 9 10 11 12 13 14
984
FTUS46 KMTR 250528
TAFSJC
TAF
KSJC 250528Z 2506/2606 30005KT P6SM FEW013 SCT200
     FM251000 VRB04KT 6SM BR BKN012
     FM251700 31004KT P6SM SCT012 SCT200
     FM252100 31010KT P6SM FEW010 FEW200=

USA.gov is the U.S. government's official web portal to all federal, state and local government web resources and services.